Time;durP1;ratioP1;P1;durP2;ratioP2;P2;SDS_P1;SDS_P2;PMS_P1;PMS_P2;Temp;Humidity;BMP_temperature;BMP_pressure;BME280_temperature;BME280_humidity;BME280_pressure;Samples;Min_cycle;Max_cycle;Signal;HPM_P1;HPM_P2
2023/09/09 00:01:03;;;;;;;15.10;13.52;;;18.70;99.90;;;;;;5035653;28;20122;-63
2023/09/09 00:03:29;;;;;;;16.23;13.20;;;18.70;99.90;;;;;;5053141;28;20043;-63
2023/09/09 00:05:55;;;;;;;14.82;12.90;;;18.70;99.90;;;;;;5036772;28;20148;-64
2023/09/09 00:08:20;;;;;;;15.50;13.77;;;18.60;99.90;;;;;;5035572;28;20552;-64
2023/09/09 00:10:46;;;;;;;19.83;17.75;;;18.60;99.90;;;;;;5036103;28;20051;-64
2023/09/09 00:13:12;;;;;;;18.42;15.10;;;18.60;99.90;;;;;;5035993;28;20080;-63
2023/09/09 00:15:38;;;;;;;21.63;17.75;;;18.60;99.90;;;;;;5035480;28;20078;-63
2023/09/09 00:18:04;;;;;;;18.02;16.13;;;18.50;99.90;;;;;;5053483;28;20043;-64
2023/09/09 00:20:30;;;;;;;17.77;15.88;;;18.50;99.90;;;;;;5035687;28;20477;-64
2023/09/09 00:22:57;;;;;;;20.75;16.45;;;18.50;99.90;;;;;;5053102;28;20029;-63
2023/09/09 00:25:22;;;;;;;19.52;17.35;;;18.40;99.90;;;;;;5053751;28;20041;-63
2023/09/09 00:27:48;;;;;;;18.45;16.08;;;18.50;99.90;;;;;;5054017;28;20047;-63
2023/09/09 00:30:14;;;;;;;18.70;16.80;;;18.40;99.90;;;;;;5034769;28;20049;-63
2023/09/09 00:32:39;;;;;;;17.50;15.63;;;18.40;99.90;;;;;;5035772;28;20036;-63
2023/09/09 00:35:05;;;;;;;18.00;16.20;;;18.40;99.90;;;;;;5053157;28;20557;-63
2023/09/09 00:37:31;;;;;;;20.20;17.83;;;18.40;99.90;;;;;;5052954;28;20029;-63
2023/09/09 00:39:57;;;;;;;19.67;17.75;;;18.40;99.90;;;;;;5035874;28;20568;-63
2023/09/09 00:42:22;;;;;;;18.15;16.05;;;18.30;99.90;;;;;;5035780;28;20500;-63
2023/09/09 00:44:48;;;;;;;18.33;16.38;;;18.30;99.90;;;;;;5052622;28;20053;-63
2023/09/09 00:47:14;;;;;;;20.45;18.33;;;18.30;99.90;;;;;;5052777;28;20053;-63
2023/09/09 00:49:40;;;;;;;20.90;18.83;;;18.30;99.90;;;;;;5035381;28;20053;-63
2023/09/09 00:52:05;;;;;;;20.55;18.38;;;18.30;99.90;;;;;;5034740;28;20132;-63
2023/09/09 00:54:32;;;;;;;23.63;21.08;;;18.20;99.90;;;;;;5053198;28;20044;-63
2023/09/09 00:57:00;;;;;;;22.63;20.30;;;18.20;99.90;;;;;;5053233;28;21445;-63
2023/09/09 00:59:26;;;;;;;22.40;20.00;;;18.20;99.90;;;;;;5034554;28;20049;-63
2023/09/09 01:01:53;;;;;;;19.95;17.83;;;18.10;99.90;;;;;;5052953;28;20187;-63
2023/09/09 01:04:18;;;;;;;19.48;17.48;;;18.10;99.90;;;;;;5053343;28;20056;-63
2023/09/09 01:06:44;;;;;;;15.60;13.93;;;18.10;99.90;;;;;;5052490;28;20041;-63
2023/09/09 01:09:10;;;;;;;26.50;22.75;;;18.10;99.90;;;;;;5034458;28;20036;-63
2023/09/09 01:11:36;;;;;;;19.15;17.20;;;18.10;99.90;;;;;;5033776;28;20037;-63
2023/09/09 01:14:02;;;;;;;20.98;18.77;;;18.10;99.90;;;;;;5052648;28;20040;-63
2023/09/09 01:16:30;;;;;;;20.65;18.35;;;18.10;99.90;;;;;;5034308;28;20037;-63
2023/09/09 01:18:55;;;;;;;23.42;20.95;;;18.00;99.90;;;;;;5034206;28;20041;-63
2023/09/09 01:21:24;;;;;;;24.63;21.08;;;18.00;99.90;;;;;;5052728;28;20037;-63
2023/09/09 01:23:49;;;;;;;18.60;16.35;;;18.00;99.90;;;;;;5052761;28;20375;-63
2023/09/09 01:26:15;;;;;;;18.98;17.00;;;18.00;99.90;;;;;;5017647;28;20051;-63
2023/09/09 01:28:42;;;;;;;21.00;18.65;;;18.00;99.90;;;;;;5034941;28;20040;-65
2023/09/09 01:31:08;;;;;;;23.05;20.63;;;18.00;99.90;;;;;;5052236;28;20037;-63
2023/09/09 01:33:33;;;;;;;21.23;18.67;;;17.90;99.90;;;;;;5034001;28;20045;-63
2023/09/09 01:35:59;;;;;;;24.25;21.10;;;18.00;99.90;;;;;;5052637;28;20041;-63
2023/09/09 01:38:25;;;;;;;24.17;20.02;;;18.00;99.90;;;;;;5052249;28;20037;-63
2023/09/09 01:40:50;;;;;;;21.80;19.48;;;17.90;99.90;;;;;;5033341;28;20037;-63
2023/09/09 01:43:16;;;;;;;23.85;21.35;;;17.90;99.90;;;;;;5034048;28;20116;-63
2023/09/09 01:45:42;;;;;;;23.35;20.90;;;17.90;99.90;;;;;;5052209;28;20029;-63
2023/09/09 01:48:07;;;;;;;21.77;19.48;;;17.90;99.90;;;;;;5030123;28;20132;-63
2023/09/09 01:50:33;;;;;;;24.20;21.73;;;17.90;99.90;;;;;;5031024;28;20410;-63
2023/09/09 01:53:00;;;;;;;21.63;19.40;;;17.80;99.90;;;;;;5032273;28;20052;-63
2023/09/09 01:55:26;;;;;;;20.88;18.15;;;17.80;99.90;;;;;;5030309;28;20060;-63
2023/09/09 01:57:52;;;;;;;24.67;21.70;;;17.80;99.90;;;;;;5030966;28;20406;-63
2023/09/09 02:00:18;;;;;;;22.00;19.80;;;17.80;99.90;;;;;;5032065;28;20374;-63
2023/09/09 02:02:43;;;;;;;23.25;18.38;;;17.70;99.90;;;;;;5031433;28;20072;-63
2023/09/09 02:05:09;;;;;;;18.55;16.55;;;17.70;99.90;;;;;;5030248;28;20568;-63
2023/09/09 02:07:35;;;;;;;20.40;18.27;;;17.60;99.90;;;;;;5031931;28;20041;-65
2023/09/09 02:10:01;;;;;;;19.65;17.50;;;17.70;99.90;;;;;;5030098;28;20057;-63
2023/09/09 02:12:28;;;;;;;17.60;15.80;;;17.60;99.90;;;;;;5030077;28;20049;-63
2023/09/09 02:14:54;;;;;;;15.70;14.02;;;17.60;99.90;;;;;;5030582;28;20049;-63
2023/09/09 02:17:19;;;;;;;16.80;15.10;;;17.60;99.90;;;;;;5030809;28;20041;-63
2023/09/09 02:19:45;;;;;;;17.38;15.60;;;17.60;99.90;;;;;;5030962;28;20463;-63
2023/09/09 02:22:11;;;;;;;19.15;15.77;;;17.60;99.90;;;;;;5031045;28;20037;-63
2023/09/09 02:24:36;;;;;;;16.90;15.10;;;17.60;99.90;;;;;;5034647;28;20045;-63
2023/09/09 02:27:03;;;;;;;18.60;16.65;;;17.60;99.90;;;;;;5036105;28;20045;-63
2023/09/09 02:29:28;;;;;;;23.40;20.90;;;17.60;99.90;;;;;;5017134;28;20479;-63
2023/09/09 02:31:54;;;;;;;20.00;17.20;;;17.50;99.90;;;;;;5035195;28;20033;-63
2023/09/09 02:34:19;;;;;;;20.63;18.42;;;17.50;99.90;;;;;;5034646;28;20104;-63
2023/09/09 02:37:17;;;;;;;21.50;18.35;;;17.50;99.90;;;;;;5017641;28;20037;-63
2023/09/09 02:39:48;;;;;;;21.17;18.90;;;17.50;99.90;;;;;;5034488;28;20037;-63
2023/09/09 02:42:16;;;;;;;22.48;19.50;;;17.40;99.90;;;;;;5014761;28;20038;-64
2023/09/09 02:44:42;;;;;;;24.70;16.17;;;17.40;99.90;;;;;;5015717;28;20041;-65
2023/09/09 02:47:09;;;;;;;15.75;14.05;;;17.40;99.90;;;;;;5000728;28;20045;-66
2023/09/09 02:49:36;;;;;;;17.48;14.98;;;17.40;99.90;;;;;;5036092;28;20053;-65
2023/09/09 02:52:01;;;;;;;18.98;16.50;;;17.40;99.90;;;;;;5026750;28;20064;-65
2023/09/09 02:54:27;;;;;;;17.95;15.70;;;17.40;99.90;;;;;;5055330;28;20044;-65
2023/09/09 02:56:53;;;;;;;20.88;18.33;;;17.40;99.90;;;;;;5055728;28;20068;-65
2023/09/09 02:59:18;;;;;;;20.83;18.13;;;17.40;99.90;;;;;;5037485;28;20045;-65
2023/09/09 03:01:44;;;;;;;30.77;22.65;;;17.40;99.90;;;;;;5037231;28;20045;-63
2023/09/09 03:04:11;;;;;;;21.30;19.00;;;17.40;99.90;;;;;;5054254;28;20045;-63
2023/09/09 03:06:37;;;;;;;20.48;18.30;;;17.40;99.90;;;;;;5055111;28;20041;-63
2023/09/09 03:09:03;;;;;;;21.63;19.33;;;17.30;99.90;;;;;;5037285;28;20055;-63
2023/09/09 03:11:29;;;;;;;19.70;17.70;;;17.30;99.90;;;;;;5054223;28;20041;-63
2023/09/09 03:13:55;;;;;;;23.63;21.23;;;17.30;99.90;;;;;;5055377;28;20033;-63
2023/09/09 03:16:20;;;;;;;29.35;22.73;;;17.20;99.90;;;;;;5054471;28;20379;-63
2023/09/09 03:18:46;;;;;;;25.20;22.52;;;17.30;99.90;;;;;;5036380;28;20036;-63
2023/09/09 03:21:12;;;;;;;30.40;27.15;;;17.20;99.90;;;;;;5054861;28;20048;-63
2023/09/09 03:23:37;;;;;;;25.45;22.75;;;17.20;99.90;;;;;;5036970;28;20419;-63
2023/09/09 03:26:04;;;;;;;23.70;21.30;;;17.20;99.90;;;;;;5036556;28;20045;-63
2023/09/09 03:28:30;;;;;;;24.10;21.55;;;17.20;99.90;;;;;;5037099;28;20045;-63
2023/09/09 03:30:57;;;;;;;25.02;22.42;;;17.10;99.90;;;;;;5055370;28;20375;-63
2023/09/09 03:33:24;;;;;;;29.88;22.02;;;17.10;99.90;;;;;;5053765;28;20043;-63
2023/09/09 03:35:50;;;;;;;22.17;19.70;;;17.10;99.90;;;;;;5053572;28;20071;-63
2023/09/09 03:38:16;;;;;;;22.63;20.33;;;17.10;99.90;;;;;;5037046;28;20037;-63
2023/09/09 03:40:44;;;;;;;22.42;19.85;;;17.10;99.90;;;;;;5036023;28;20037;-63
2023/09/09 03:43:11;;;;;;;23.30;20.83;;;17.00;99.90;;;;;;5054361;28;20467;-63
2023/09/09 03:45:37;;;;;;;23.80;21.23;;;17.00;99.90;;;;;;5037013;28;20056;-63
2023/09/09 03:48:04;;;;;;;23.52;20.23;;;17.00;99.90;;;;;;5042929;28;20056;-63
2023/09/09 03:50:30;;;;;;;23.23;20.25;;;17.00;99.90;;;;;;5052859;28;20124;-63
2023/09/09 03:52:56;;;;;;;23.88;20.00;;;17.00;99.90;;;;;;5044997;28;20048;-63
2023/09/09 03:55:22;;;;;;;20.90;18.73;;;16.90;99.90;;;;;;5019000;28;20460;-63
2023/09/09 03:57:47;;;;;;;23.45;19.98;;;16.90;99.90;;;;;;5036449;28;20051;-63
2023/09/09 04:00:14;;;;;;;20.13;17.98;;;16.90;99.90;;;;;;5036570;28;20087;-63
2023/09/09 04:02:39;;;;;;;21.67;19.48;;;16.90;99.90;;;;;;5021739;28;20052;-63
2023/09/09 04:05:06;;;;;;;20.85;18.65;;;16.80;99.90;;;;;;5036599;28;20405;-63
2023/09/09 04:07:35;;;;;;;24.73;22.17;;;16.90;99.90;;;;;;5035757;28;20049;-63
2023/09/09 04:10:02;;;;;;;28.40;24.77;;;16.80;99.90;;;;;;5019950;28;20612;-63
2023/09/09 04:12:27;;;;;;;22.42;19.58;;;16.80;99.90;;;;;;5035583;28;20099;-63
2023/09/09 04:14:53;;;;;;;25.20;20.25;;;16.80;99.90;;;;;;5035832;28;20045;-63
2023/09/09 04:17:19;;;;;;;22.65;20.30;;;16.80;99.90;;;;;;5036133;28;20083;-63
2023/09/09 04:19:45;;;;;;;23.90;21.40;;;16.80;99.90;;;;;;5054101;28;20044;-63
2023/09/09 04:22:10;;;;;;;21.33;17.45;;;16.80;99.90;;;;;;5035572;28;20036;-63
2023/09/09 04:24:36;;;;;;;24.92;22.23;;;16.80;99.90;;;;;;5036209;28;20105;-63
2023/09/09 04:27:02;;;;;;;24.10;21.50;;;16.70;99.90;;;;;;5019615;28;20501;-63
2023/09/09 04:29:28;;;;;;;23.45;20.98;;;16.70;99.90;;;;;;5052690;28;20041;-63
2023/09/09 04:31:54;;;;;;;23.67;19.98;;;16.80;99.90;;;;;;5036608;28;20052;-63
2023/09/09 04:34:20;;;;;;;20.30;18.15;;;16.80;99.90;;;;;;5053415;28;20063;-63
2023/09/09 04:36:45;;;;;;;24.33;21.80;;;16.70;99.90;;;;;;5052590;28;20035;-63
2023/09/09 04:39:14;;;;;;;26.38;22.58;;;16.70;99.90;;;;;;5019456;28;20037;-63
2023/09/09 04:41:40;;;;;;;22.77;20.42;;;16.70;99.90;;;;;;5020852;28;20102;-63
2023/09/09 04:44:06;;;;;;;22.10;19.08;;;16.70;99.90;;;;;;5031600;28;20048;-63
2023/09/09 04:46:32;;;;;;;22.17;19.40;;;16.60;99.90;;;;;;5032846;28;20041;-63
2023/09/09 04:48:58;;;;;;;25.13;20.58;;;16.70;99.90;;;;;;5051423;28;20533;-63
2023/09/09 04:51:23;;;;;;;21.75;19.13;;;16.60;99.90;;;;;;5034873;28;20427;-63
2023/09/09 04:53:50;;;;;;;25.33;21.80;;;16.60;99.90;;;;;;5053337;28;20051;-63
2023/09/09 04:56:16;;;;;;;25.75;22.85;;;16.60;99.90;;;;;;5035163;28;20044;-63
2023/09/09 04:58:41;;;;;;;19.15;16.75;;;16.60;99.90;;;;;;5018306;28;20056;-63
2023/09/09 05:01:07;;;;;;;25.65;22.95;;;16.60;99.90;;;;;;5034080;28;20033;-64
2023/09/09 05:03:33;;;;;;;28.77;24.65;;;16.60;99.90;;;;;;5035200;28;20040;-63
2023/09/09 05:05:58;;;;;;;25.58;22.27;;;16.50;99.90;;;;;;5052684;28;20466;-63
2023/09/09 05:08:24;;;;;;;21.35;19.17;;;16.50;99.90;;;;;;5052850;28;20044;-63
2023/09/09 05:10:50;;;;;;;17.52;15.70;;;16.50;99.90;;;;;;5034658;28;20044;-63
2023/09/09 05:13:15;;;;;;;22.30;19.98;;;16.50;99.90;;;;;;5034117;28;20112;-64
2023/09/09 05:15:41;;;;;;;25.83;23.13;;;16.50;99.90;;;;;;5034298;28;20079;-63
2023/09/09 05:18:07;;;;;;;20.80;17.23;;;16.50;99.90;;;;;;5034275;28;20037;-64
2023/09/09 05:20:32;;;;;;;24.80;22.20;;;16.50;99.90;;;;;;5052492;28;20098;-64
2023/09/09 05:22:58;;;;;;;23.23;19.75;;;16.50;99.90;;;;;;5018083;28;20052;-64
2023/09/09 05:25:24;;;;;;;18.42;16.50;;;16.50;99.90;;;;;;5017700;28;20045;-64
2023/09/09 05:27:50;;;;;;;22.13;17.75;;;16.50;99.90;;;;;;5018606;28;20033;-64
2023/09/09 05:30:15;;;;;;;19.00;15.63;;;16.50;99.90;;;;;;5052476;28;20504;-64
2023/09/09 05:32:41;;;;;;;20.63;18.13;;;16.50;99.90;;;;;;5034006;28;20044;-64
2023/09/09 05:35:10;;;;;;;22.55;20.27;;;16.50;99.90;;;;;;5020861;28;20052;-64
2023/09/09 05:37:36;;;;;;;22.27;17.98;;;16.50;99.90;;;;;;5045400;28;20052;-64
2023/09/09 05:40:02;;;;;;;24.70;22.10;;;16.60;99.90;;;;;;5015850;28;20053;-64
2023/09/09 05:42:28;;;;;;;28.20;24.33;;;16.50;99.90;;;;;;5031803;28;20045;-64
2023/09/09 05:44:54;;;;;;;27.63;24.65;;;16.50;99.90;;;;;;5032164;28;20047;-63
2023/09/09 05:47:20;;;;;;;25.02;21.02;;;16.60;99.90;;;;;;5048443;28;20541;-63
2023/09/09 05:49:45;;;;;;;24.70;22.05;;;16.60;99.90;;;;;;5031500;28;20041;-64
2023/09/09 05:52:12;;;;;;;24.98;22.38;;;16.70;99.90;;;;;;5031615;28;20106;-64
2023/09/09 05:54:38;;;;;;;32.95;29.33;;;16.70;99.90;;;;;;5049425;28;20452;-64
2023/09/09 05:57:05;;;;;;;25.75;23.15;;;16.70;99.90;;;;;;5031114;28;20124;-64
2023/09/09 05:59:31;;;;;;;28.75;25.65;;;16.70;99.90;;;;;;5048502;28;20037;-64
2023/09/09 06:01:56;;;;;;;30.77;27.25;;;16.70;99.90;;;;;;5031579;28;20045;-64
2023/09/09 06:04:22;;;;;;;24.95;21.80;;;16.80;99.90;;;;;;5032101;28;20052;-64
2023/09/09 06:06:48;;;;;;;25.52;22.83;;;16.80;99.90;;;;;;5031810;28;20102;-64
2023/09/09 06:09:14;;;;;;;23.23;19.98;;;16.90;99.90;;;;;;5029058;28;20055;-64
2023/09/09 06:11:40;;;;;;;23.25;20.75;;;16.90;99.90;;;;;;5044679;28;20041;-64
2023/09/09 06:14:06;;;;;;;22.63;20.23;;;16.90;99.90;;;;;;5028903;28;20038;-64
2023/09/09 06:16:32;;;;;;;23.92;19.40;;;17.00;99.90;;;;;;5014406;28;20120;-64
2023/09/09 06:18:58;;;;;;;24.27;21.88;;;17.00;99.90;;;;;;5034060;28;20123;-63
2023/09/09 06:21:24;;;;;;;24.42;22.02;;;17.10;99.90;;;;;;5032818;28;20044;-64
2023/09/09 06:23:49;;;;;;;27.90;24.40;;;17.20;99.90;;;;;;5052087;28;20037;-64
2023/09/09 06:26:15;;;;;;;26.20;23.17;;;17.30;99.90;;;;;;5034456;28;20041;-64
2023/09/09 06:28:41;;;;;;;28.13;25.13;;;17.30;99.90;;;;;;5050879;28;20044;-64
2023/09/09 06:31:07;;;;;;;33.42;30.10;;;17.40;99.90;;;;;;5039841;28;20155;-64
2023/09/09 06:33:33;;;;;;;39.55;35.60;;;17.50;99.90;;;;;;5051276;28;20095;-63
2023/09/09 06:35:59;;;;;;;30.70;27.70;;;17.60;99.90;;;;;;5050826;28;20432;-62
2023/09/09 06:38:24;;;;;;;39.38;34.63;;;17.60;99.90;;;;;;5033828;28;20040;-62
2023/09/09 06:40:50;;;;;;;60.47;43.03;;;17.60;99.90;;;;;;5051821;28;20037;-62
2023/09/09 06:43:20;;;;;;;47.10;38.50;;;17.80;99.90;;;;;;5051012;28;20482;-62
2023/09/09 06:45:46;;;;;;;83.38;55.67;;;17.90;99.90;;;;;;5033463;28;20052;-62
2023/09/09 06:48:17;;;;;;;281.38;90.15;;;17.90;99.90;;;;;;5033877;28;20437;-63
2023/09/09 06:50:49;;;;;;;80.15;54.33;;;18.00;99.90;;;;;;5033315;28;20393;-62
2023/09/09 06:53:15;;;;;;;61.72;50.55;;;18.10;99.90;;;;;;5033664;28;20475;-63
2023/09/09 06:55:43;;;;;;;68.70;54.15;;;18.20;99.90;;;;;;5050991;28;20385;-63
2023/09/09 06:58:09;;;;;;;67.30;54.00;;;18.30;99.90;;;;;;5032793;28;20125;-63
2023/09/09 07:00:36;;;;;;;60.58;51.10;;;18.30;99.90;;;;;;5051664;28;20465;-63
2023/09/09 07:03:03;;;;;;;66.38;57.30;;;18.40;99.90;;;;;;5051631;28;20486;-63
2023/09/09 07:05:31;;;;;;;69.15;55.63;;;18.40;99.90;;;;;;5050410;28;20460;-63
2023/09/09 07:07:56;;;;;;;60.30;53.70;;;18.60;99.90;;;;;;5033643;28;20044;-62
2023/09/09 07:10:22;;;;;;;69.95;56.75;;;18.60;99.90;;;;;;5036011;28;20375;-62
2023/09/09 07:12:49;;;;;;;67.82;58.33;;;18.70;99.90;;;;;;5054753;28;20398;-63
2023/09/09 07:15:15;;;;;;;65.47;56.63;;;18.80;99.90;;;;;;5036677;28;20082;-63
2023/09/09 07:17:46;;;;;;;63.90;55.60;;;18.90;99.90;;;;;;5036255;28;20045;-62
2023/09/09 07:20:12;;;;;;;66.93;59.40;;;19.10;99.90;;;;;;5036716;28;20045;-62
2023/09/09 07:22:38;;;;;;;68.93;59.30;;;19.10;99.90;;;;;;5054473;28;20037;-63
2023/09/09 07:25:05;;;;;;;77.65;65.20;;;19.20;99.90;;;;;;5054498;28;20041;-63
2023/09/09 07:27:30;;;;;;;76.35;64.88;;;19.40;99.90;;;;;;5036320;28;20494;-63
2023/09/09 07:29:56;;;;;;;69.80;61.45;;;19.50;99.90;;;;;;5036556;28;20045;-63
2023/09/09 07:32:22;;;;;;;69.32;59.50;;;19.60;99.90;;;;;;5035892;28;20055;-63
2023/09/09 07:34:49;;;;;;;66.25;59.05;;;19.70;99.90;;;;;;5037066;28;20098;-63
2023/09/09 07:37:15;;;;;;;69.03;59.25;;;19.80;99.90;;;;;;5054023;28;20052;-63
2023/09/09 07:39:50;;;;;;;69.05;59.00;;;19.90;99.90;;;;;;5053419;28;20036;-63
2023/09/09 07:42:16;;;;;;;68.03;60.10;;;20.10;99.90;;;;;;5036150;28;20047;-63
2023/09/09 07:44:43;;;;;;;66.45;59.25;;;20.10;99.90;;;;;;5053638;28;20044;-63
2023/09/09 07:47:09;;;;;;;71.25;63.67;;;20.30;99.90;;;;;;5035449;28;20053;-63
2023/09/09 07:49:35;;;;;;;66.53;58.13;;;20.30;99.90;;;;;;5019917;28;20084;-64
2023/09/09 07:52:02;;;;;;;67.90;60.65;;;20.40;99.90;;;;;;5054371;28;20494;-64
2023/09/09 07:54:29;;;;;;;72.65;64.85;;;20.50;99.90;;;;;;5052371;28;20044;-64
2023/09/09 07:56:55;;;;;;;64.82;55.60;;;20.70;99.90;;;;;;5036445;28;20052;-64
2023/09/09 07:59:20;;;;;;;54.72;48.88;;;20.80;99.90;;;;;;5036255;28;20040;-64
2023/09/09 08:01:47;;;;;;;57.20;50.95;;;20.90;99.90;;;;;;5034385;28;20032;-64
2023/09/09 08:04:12;;;;;;;54.08;48.35;;;21.00;99.90;;;;;;5031832;28;20158;-64
2023/09/09 08:06:38;;;;;;;58.80;52.53;;;21.10;99.90;;;;;;5034729;28;20273;-64
2023/09/09 08:09:04;;;;;;;57.13;50.97;;;21.10;99.90;;;;;;5053848;28;20149;-64
2023/09/09 08:11:29;;;;;;;53.00;47.22;;;21.20;99.90;;;;;;5035355;28;20044;-63
2023/09/09 08:13:55;;;;;;;59.53;53.08;;;21.20;99.90;;;;;;5035429;28;20052;-63
2023/09/09 08:16:21;;;;;;;60.42;53.95;;;21.30;99.90;;;;;;5053493;28;20490;-63
2023/09/09 08:18:46;;;;;;;62.75;55.95;;;21.40;99.90;;;;;;5035753;28;20055;-63
2023/09/09 08:21:13;;;;;;;64.68;57.83;;;21.50;99.90;;;;;;5034112;28;20047;-63
2023/09/09 08:23:39;;;;;;;62.45;56.05;;;21.50;99.90;;;;;;5049763;28;20037;-63
2023/09/09 08:26:05;;;;;;;64.35;57.42;;;21.60;99.90;;;;;;5053800;28;20033;-63
2023/09/09 08:28:31;;;;;;;61.65;55.08;;;21.60;99.90;;;;;;5052745;28;20029;-63
2023/09/09 08:30:58;;;;;;;71.55;64.32;;;21.70;99.90;;;;;;5035815;28;20041;-63
2023/09/09 08:33:24;;;;;;;68.93;61.28;;;21.80;99.90;;;;;;5035280;28;20084;-62
2023/09/09 08:35:49;;;;;;;62.65;55.97;;;21.80;99.90;;;;;;5034680;28;20073;-63
2023/09/09 08:38:15;;;;;;;61.40;55.03;;;21.90;99.90;;;;;;5035350;28;20427;-63
2023/09/09 08:40:54;;;;;;;61.90;55.22;;;22.00;99.90;;;;;;5053190;28;20399;-63
2023/09/09 08:43:33;;;;;;;63.53;56.10;;;22.00;99.90;;;;;;5052983;28;20069;-63
2023/09/09 08:46:02;;;;;;;61.38;55.13;;;22.10;99.90;;;;;;5035533;28;20115;-63
2023/09/09 08:48:30;;;;;;;53.95;48.35;;;22.20;99.90;;;;;;5052580;28;20421;-63
2023/09/09 08:50:59;;;;;;;50.05;44.60;;;22.30;99.90;;;;;;5034184;28;20040;-63
2023/09/09 08:53:27;;;;;;;49.97;44.42;;;22.40;99.90;;;;;;5034717;28;20033;-63
2023/09/09 08:55:55;;;;;;;46.17;41.25;;;22.50;99.90;;;;;;5052207;28;20047;-63
2023/09/09 08:58:21;;;;;;;39.20;34.95;;;22.50;99.90;;;;;;5035053;28;20041;-62
2023/09/09 09:00:47;;;;;;;42.63;38.22;;;22.60;99.90;;;;;;5022373;28;20037;-63
2023/09/09 09:03:14;;;;;;;39.17;35.00;;;22.60;99.90;;;;;;5034980;28;20368;-63
2023/09/09 09:05:42;;;;;;;44.50;39.63;;;22.70;99.90;;;;;;5018593;28;20055;-63
2023/09/09 09:08:09;;;;;;;43.80;39.28;;;22.80;99.90;;;;;;5052950;28;20045;-62
2023/09/09 09:10:37;;;;;;;42.47;37.88;;;22.90;99.90;;;;;;5034485;28;20398;-63
2023/09/09 09:13:02;;;;;;;44.08;39.38;;;22.90;99.90;;;;;;5053512;28;20374;-63
2023/09/09 09:15:32;;;;;;;44.45;39.65;;;22.90;99.90;;;;;;5052319;28;20037;-63
2023/09/09 09:17:59;;;;;;;46.22;40.70;;;23.10;99.90;;;;;;5034797;28;20370;-63
2023/09/09 09:20:27;;;;;;;45.75;40.90;;;23.10;99.90;;;;;;5034825;28;20044;-63
2023/09/09 09:22:57;;;;;;;49.25;44.13;;;23.20;99.90;;;;;;5052902;28;20032;-63
2023/09/09 09:25:23;;;;;;;45.20;39.85;;;23.20;99.90;;;;;;5051980;28;20040;-63
2023/09/09 09:27:49;;;;;;;44.63;37.28;;;23.20;99.90;;;;;;5034727;28;20052;-63
2023/09/09 09:30:21;;;;;;;38.60;33.75;;;23.30;99.90;;;;;;5035723;28;20386;-63
2023/09/09 09:32:54;;;;;;;31.33;26.98;;;23.30;99.90;;;;;;5052412;28;20052;-63
2023/09/09 09:35:30;;;;;;;29.90;26.75;;;23.30;99.90;;;;;;5034490;28;20041;-63
2023/09/09 09:37:58;;;;;;;30.40;26.20;;;23.40;99.90;;;;;;5033960;28;20045;-63
2023/09/09 09:40:28;;;;;;;27.05;23.27;;;23.40;99.90;;;;;;5034638;28;20432;-63
2023/09/09 09:42:54;;;;;;;25.70;22.77;;;23.50;99.90;;;;;;5034968;28;20393;-63
2023/09/09 09:45:27;;;;;;;26.83;23.45;;;23.70;99.90;;;;;;5051264;28;20063;-63
2023/09/09 09:47:53;;;;;;;23.88;21.35;;;23.70;99.90;;;;;;5051929;28;20057;-64
2023/09/09 09:50:30;;;;;;;23.95;21.27;;;23.70;99.90;;;;;;5052084;28;20101;-63
2023/09/09 09:53:06;;;;;;;22.73;17.98;;;23.80;99.90;;;;;;5033350;28;20048;-63
2023/09/09 09:55:34;;;;;;;21.02;18.05;;;23.80;99.90;;;;;;5052066;28;20044;-64
2023/09/09 09:58:07;;;;;;;20.92;18.73;;;23.90;99.90;;;;;;5033423;28;20096;-64
2023/09/09 10:00:33;;;;;;;21.60;18.77;;;23.90;99.90;;;;;;5033203;28;20107;-64
2023/09/09 10:03:01;;;;;;;22.20;18.73;;;24.00;99.90;;;;;;5034216;28;20109;-63
2023/09/09 10:05:28;;;;;;;19.00;16.98;;;24.00;99.90;;;;;;5017282;28;20087;-63
2023/09/09 10:08:17;;;;;;;18.52;15.13;;;24.10;99.90;;;;;;5033934;28;20051;-63
2023/09/09 10:10:51;;;;;;;18.42;16.08;;;24.10;99.90;;;;;;5028346;28;20489;-63
2023/09/09 10:13:30;;;;;;;19.80;15.68;;;24.20;99.90;;;;;;5033504;28;20070;-63
2023/09/09 10:15:57;;;;;;;17.20;15.35;;;24.20;99.90;;;;;;5034178;28;20045;-63
2023/09/09 10:18:25;;;;;;;17.13;15.00;;;24.20;99.90;;;;;;5052029;28;20047;-63
2023/09/09 10:20:53;;;;;;;18.52;16.33;;;24.30;99.90;;;;;;5033151;28;20094;-63
2023/09/09 10:23:21;;;;;;;15.75;14.05;;;24.20;99.90;;;;;;5034537;28;20278;-64
2023/09/09 10:25:48;;;;;;;13.95;12.35;;;24.20;99.90;;;;;;5052313;28;20120;-63
2023/09/09 10:28:15;;;;;;;15.07;13.30;;;24.20;99.90;;;;;;5051211;28;20037;-64
2023/09/09 10:30:42;;;;;;;15.15;12.75;;;24.30;99.90;;;;;;5033836;28;20057;-63
2023/09/09 10:33:10;;;;;;;17.48;13.63;;;24.40;99.90;;;;;;5051951;28;20041;-64
2023/09/09 10:35:37;;;;;;;17.05;13.93;;;24.40;99.90;;;;;;5016637;28;20040;-64
2023/09/09 10:38:04;;;;;;;16.63;13.68;;;24.50;99.90;;;;;;5034139;28;20079;-64
2023/09/09 10:40:30;;;;;;;16.30;13.25;;;24.50;99.90;;;;;;5033406;28;20052;-64
2023/09/09 10:42:57;;;;;;;16.48;13.13;;;24.60;99.90;;;;;;5033155;28;20120;-64
2023/09/09 10:45:28;;;;;;;12.63;10.10;;;24.60;99.90;;;;;;5036218;28;20094;-64
2023/09/09 10:48:01;;;;;;;13.70;11.80;;;24.60;99.90;;;;;;5017456;28;20148;-64
2023/09/09 10:50:38;;;;;;;17.17;13.35;;;24.70;99.90;;;;;;5033876;28;20045;-64
2023/09/09 10:53:36;;;;;;;15.50;12.50;;;24.70;99.90;;;;;;5034614;28;20046;-64
2023/09/09 10:56:17;;;;;;;15.05;12.20;;;24.60;99.90;;;;;;4992397;28;20367;-63
2023/09/09 10:58:46;;;;;;;14.43;11.60;;;24.70;99.90;;;;;;5015807;28;20073;-64
2023/09/09 11:01:38;;;;;;;11.85;9.57;;;24.70;99.90;;;;;;5015494;28;20487;-64
2023/09/09 11:04:21;;;;;;;12.73;11.43;;;24.70;99.90;;;;;;5013119;28;20053;-64
2023/09/09 11:07:09;;;;;;;12.50;10.90;;;24.70;99.90;;;;;;5014200;28;20490;-64
2023/09/09 11:09:37;;;;;;;12.93;11.43;;;24.70;99.90;;;;;;4997115;28;20056;-64
2023/09/09 11:12:13;;;;;;;13.25;11.18;;;24.70;99.90;;;;;;5015536;28;20524;-64
2023/09/09 11:14:47;;;;;;;15.60;12.85;;;24.70;99.90;;;;;;5030478;28;20095;-64
2023/09/09 11:17:13;;;;;;;12.40;10.38;;;24.80;99.90;;;;;;4997071;28;20033;-64
2023/09/09 11:19:41;;;;;;;14.40;11.52;;;24.90;99.90;;;;;;5014332;28;20441;-64
2023/09/09 11:22:08;;;;;;;12.20;10.40;;;24.90;99.90;;;;;;5014065;28;20041;-63
2023/09/09 11:24:34;;;;;;;14.27;12.77;;;25.00;99.90;;;;;;5014396;28;20136;-64
2023/09/09 11:27:01;;;;;;;11.43;9.95;;;24.90;99.90;;;;;;5015231;28;20487;-64
2023/09/09 11:29:29;;;;;;;13.45;11.32;;;25.00;99.90;;;;;;5015006;28;20533;-64
2023/09/09 11:31:55;;;;;;;11.20;8.98;;;25.00;99.90;;;;;;5013396;28;20400;-64
2023/09/09 11:34:31;;;;;;;10.82;8.80;;;25.00;99.90;;;;;;5014890;28;20052;-64
2023/09/09 11:36:58;;;;;;;13.07;9.48;;;25.10;99.90;;;;;;5013969;28;20478;-64
2023/09/09 11:39:24;;;;;;;11.00;9.60;;;25.10;99.90;;;;;;5012740;28;20049;-64
2023/09/09 11:41:49;;;;;;;10.50;8.90;;;25.10;99.90;;;;;;4997310;28;20108;-64
2023/09/09 11:44:15;;;;;;;12.27;8.85;;;25.30;99.90;;;;;;5014675;28;20038;-64
2023/09/09 11:46:43;;;;;;;10.23;8.20;;;25.30;99.90;;;;;;5013826;28;20037;-64
2023/09/09 11:49:11;;;;;;;9.55;8.25;;;25.30;99.90;;;;;;5033483;28;20053;-64
2023/09/09 11:51:36;;;;;;;10.18;7.47;;;25.40;99.90;;;;;;5015841;28;20044;-64
2023/09/09 11:54:04;;;;;;;11.77;8.35;;;25.40;99.90;;;;;;5017130;28;20045;-64
2023/09/09 11:56:33;;;;;;;10.68;8.23;;;25.50;99.90;;;;;;5015354;28;20478;-64
2023/09/09 11:58:59;;;;;;;9.90;8.00;;;25.50;99.90;;;;;;5016149;28;20041;-64
2023/09/09 12:01:25;;;;;;;10.63;9.00;;;25.50;99.90;;;;;;5034243;28;20044;-64
2023/09/09 12:03:51;;;;;;;12.55;8.00;;;25.40;99.90;;;;;;5034151;28;20398;-64
2023/09/09 12:06:20;;;;;;;10.75;9.05;;;25.50;99.90;;;;;;5016962;28;20045;-63
2023/09/09 12:08:47;;;;;;;10.38;8.80;;;25.50;99.90;;;;;;5035575;28;20045;-63
2023/09/09 12:11:15;;;;;;;12.60;9.27;;;25.50;99.90;;;;;;5036110;28;20083;-63
2023/09/09 12:13:41;;;;;;;13.15;9.18;;;25.50;99.90;;;;;;5034013;28;20041;-64
2023/09/09 12:16:08;;;;;;;10.82;9.05;;;25.50;99.90;;;;;;5035824;28;20113;-64
2023/09/09 12:18:34;;;;;;;12.85;9.65;;;25.50;99.90;;;;;;5036353;28;20045;-64
2023/09/09 12:21:06;;;;;;;9.65;8.00;;;25.50;99.90;;;;;;5018845;28;20041;-63
2023/09/09 12:23:33;;;;;;;9.40;7.85;;;25.60;99.90;;;;;;5035370;28;20037;-64
2023/09/09 12:26:17;;;;;;;16.13;9.50;;;25.60;99.90;;;;;;5036192;28;20494;-63
2023/09/09 12:28:45;;;;;;;12.55;9.18;;;25.70;99.90;;;;;;5052990;28;20045;-64